Terminal Aerodrome Forecast
Issued by NWS

Home | Current Version | Previous Version | Text Only | Print | Product List | Glossary On
Versions: 1 2 3 4 5 6 7 8 9 10 11 12 13 14
118
FTUS44 KJAN 241402 AAA
TAFHKS
TAF AMD
KHKS 241402Z 2414/2512 17007KT P6SM BKN012 OVC030
     FM241500 19014G24KT P6SM BKN015 OVC025
     FM241900 18018G29KT P6SM VCSH BKN035
     FM250700 20017G28KT 2SM TSRA BKN015 OVC025CB
     FM251000 30009KT 6SM -TSRA BKN025 OVC060CB=

USA.gov is the U.S. government's official web portal to all federal, state and local government web resources and services.